createdAt,value
2018-09-25T00:01:57.045Z,99608.27
2018-09-25T00:04:31.389Z,99601.55
2018-09-25T00:07:05.518Z,99609.62
2018-09-25T00:09:39.893Z,99610.69
2018-09-25T00:12:13.864Z,99618.52
2018-09-25T00:14:48.001Z,99614.98
2018-09-25T00:17:21.937Z,99642.57
2018-09-25T00:19:56.185Z,99638.03
2018-09-25T00:22:30.183Z,99650.50
2018-09-25T00:25:04.674Z,99645.48
2018-09-25T00:27:38.679Z,99662.55
2018-09-25T00:30:13.170Z,99656.45
2018-09-25T00:32:47.277Z,99646.31
2018-09-25T00:35:21.304Z,99656.11
2018-09-25T00:37:55.487Z,99661.78
2018-09-25T00:40:29.763Z,99652.34
2018-09-25T00:43:03.944Z,99651.05
2018-09-25T00:45:38.082Z,99651.26
2018-09-25T00:48:12.142Z,99649.39
2018-09-25T00:50:46.422Z,99665.79
2018-09-25T00:53:20.412Z,99656.39
2018-09-25T00:55:54.866Z,99662.13
2018-09-25T00:58:28.915Z,99670.75
2018-09-25T01:01:02.994Z,99673.48
2018-09-25T01:03:36.989Z,99672.55
2018-09-25T01:06:11.474Z,99684.30
2018-09-25T01:08:45.477Z,99697.75
2018-09-25T01:11:19.626Z,99707.69
2018-09-25T01:13:54.170Z,99696.26
2018-09-25T01:16:28.561Z,99685.08
2018-09-25T01:19:02.778Z,99702.43
2018-09-25T01:21:37.233Z,99697.52
2018-09-25T01:24:11.229Z,99700.91
2018-09-25T01:26:45.450Z,99702.89
2018-09-25T01:29:19.497Z,99714.09
2018-09-25T01:31:53.891Z,99726.50
2018-09-25T01:34:27.853Z,99728.48
2018-09-25T01:37:02.112Z,99740.70
2018-09-25T01:39:36.226Z,99724.55
2018-09-25T01:42:10.743Z,99753.59
2018-09-25T01:44:44.819Z,99749.22
2018-09-25T01:47:18.981Z,99737.99
2018-09-25T01:49:52.969Z,99735.72
2018-09-25T01:52:27.264Z,99736.44
2018-09-25T01:55:02.351Z,99736.13
2018-09-25T01:57:36.634Z,99748.19
2018-09-25T02:00:10.825Z,99752.20
2018-09-25T02:02:45.295Z,99755.73
2018-09-25T02:05:19.218Z,99746.03
2018-09-25T02:07:53.266Z,99755.17
2018-09-25T02:10:27.173Z,99767.44
2018-09-25T02:13:01.421Z,99753.30
2018-09-25T02:15:35.508Z,99773.90
2018-09-25T02:18:09.810Z,99767.31
2018-09-25T02:20:43.901Z,99772.20
2018-09-25T02:23:18.138Z,99779.70
2018-09-25T02:25:52.085Z,99785.14
2018-09-25T02:28:26.522Z,99780.80
2018-09-25T02:31:00.506Z,99781.80
2018-09-25T02:33:34.505Z,99779.57
2018-09-25T02:36:08.639Z,99786.59
2018-09-25T02:38:42.982Z,99796.86
2018-09-25T02:41:16.995Z,99801.16
2018-09-25T02:43:50.999Z,99789.55
2018-09-25T02:46:25.092Z,99823.02
2018-09-25T02:48:59.550Z,99803.59
2018-09-25T02:51:33.761Z,99806.44
2018-09-25T02:54:07.730Z,99800.97
2018-09-25T02:56:41.844Z,99803.94
2018-09-25T02:59:16.235Z,99796.64
2018-09-25T03:01:50.194Z,99804.40
2018-09-25T03:04:24.359Z,99806.69
2018-09-25T03:06:58.465Z,99813.73
2018-09-25T03:09:32.894Z,99811.42
2018-09-25T03:12:07.116Z,99820.09
2018-09-25T03:14:41.078Z,99839.54
2018-09-25T03:17:14.985Z,99818.98
2018-09-25T03:19:49.178Z,99823.31
2018-09-25T03:22:23.195Z,99816.88
2018-09-25T03:24:57.252Z,99834.13
2018-09-25T03:27:31.199Z,99827.06
2018-09-25T03:30:05.671Z,99837.88
2018-09-25T03:32:39.690Z,99832.55
2018-09-25T03:35:13.853Z,99849.88
2018-09-25T03:37:47.956Z,99836.54
2018-09-25T03:40:22.374Z,99841.56
2018-09-25T03:42:56.487Z,99841.95
2018-09-25T03:45:30.493Z,99864.58
2018-09-25T03:48:04.438Z,99861.58
2018-09-25T03:50:38.877Z,99866.08
2018-09-25T03:53:12.811Z,99871.29
2018-09-25T03:55:46.935Z,99867.71
2018-09-25T03:58:20.894Z,99872.80
2018-09-25T04:00:55.139Z,99880.75
2018-09-25T04:03:29.322Z,99880.97
2018-09-25T04:06:03.563Z,99872.98
2018-09-25T04:08:37.728Z,99869.03
2018-09-25T04:11:12.312Z,99866.21
2018-09-25T04:13:46.415Z,99884.78
2018-09-25T04:16:21.874Z,99877.84
2018-09-25T04:18:56.039Z,99876.98
2018-09-25T04:21:30.238Z,99882.26
2018-09-25T04:24:04.338Z,99887.64
2018-09-25T04:26:38.755Z,99888.91
2018-09-25T04:29:12.764Z,99895.72
2018-09-25T04:31:47.027Z,99889.23
2018-09-25T04:34:21.148Z,99899.25
2018-09-25T04:36:55.417Z,99912.75
2018-09-25T04:39:29.553Z,99921.16
2018-09-25T04:42:04.001Z,99922.66
2018-09-25T04:44:38.101Z,99915.81
2018-09-25T04:47:12.687Z,99912.60
2018-09-25T04:49:46.597Z,99921.75
2018-09-25T04:52:21.043Z,99930.83
2018-09-25T04:54:55.075Z,99932.84
2018-09-25T04:57:29.100Z,99932.70
2018-09-25T05:00:03.170Z,99961.59
2018-09-25T05:02:37.559Z,99949.41
2018-09-25T05:05:11.869Z,99951.36
2018-09-25T05:07:46.004Z,99955.10
2018-09-25T05:10:19.942Z,99962.00
2018-09-25T05:12:54.213Z,99962.33
2018-09-25T05:15:28.205Z,99968.85
2018-09-25T05:18:02.349Z,99975.95
2018-09-25T05:20:36.296Z,99977.52
2018-09-25T05:23:10.689Z,99966.00
2018-09-25T05:25:44.719Z,99971.77
2018-09-25T05:28:18.733Z,99965.74
2018-09-25T05:30:52.697Z,99968.08
2018-09-25T05:33:26.813Z,99972.86
2018-09-25T05:36:00.998Z,99999.64
2018-09-25T05:38:35.009Z,99981.27
2018-09-25T05:41:08.930Z,99989.09
2018-09-25T05:43:43.269Z,100002.73
2018-09-25T05:46:17.459Z,99998.17
2018-09-25T05:48:51.532Z,99998.30
2018-09-25T05:51:25.790Z,100008.56
2018-09-25T05:54:00.225Z,100011.46
2018-09-25T05:56:34.257Z,100011.11
2018-09-25T05:59:08.313Z,100014.44
2018-09-25T06:01:42.436Z,100009.03
2018-09-25T06:04:16.423Z,100019.31
2018-09-25T06:06:50.473Z,100016.16
2018-09-25T06:09:25.035Z,100016.16
2018-09-25T06:11:59.180Z,100017.41
2018-09-25T06:14:33.203Z,100014.83
2018-09-25T06:17:07.293Z,100026.83
2018-09-25T06:19:41.292Z,100022.94
2018-09-25T06:22:15.258Z,100015.39
2018-09-25T06:24:49.632Z,100025.95
2018-09-25T06:27:23.627Z,100028.62
2018-09-25T06:29:57.990Z,100031.20
2018-09-25T06:32:32.060Z,100029.53
2018-09-25T06:35:06.277Z,100027.42
2018-09-25T06:37:40.420Z,100037.02
2018-09-25T06:40:14.831Z,100050.11
2018-09-25T06:42:49.104Z,100051.33
2018-09-25T06:45:23.233Z,100039.55
2018-09-25T06:47:57.658Z,100042.12
2018-09-25T06:50:31.997Z,100042.42
2018-09-25T06:53:05.954Z,100047.28
2018-09-25T06:55:40.136Z,100058.11
2018-09-25T06:58:14.383Z,100053.38
2018-09-25T07:00:48.879Z,100074.77
2018-09-25T07:03:22.920Z,100066.14
2018-09-25T07:05:57.185Z,100080.28
2018-09-25T07:08:31.146Z,100080.74
2018-09-25T07:11:05.551Z,100083.77
2018-09-25T07:13:39.751Z,100074.60
2018-09-25T07:16:13.769Z,100084.42
2018-09-25T07:18:47.791Z,100078.88
2018-09-25T07:21:22.087Z,100076.47
2018-09-25T07:23:56.040Z,100080.80
2018-09-25T07:26:30.199Z,100088.66
2018-09-25T07:29:04.382Z,100082.61
2018-09-25T07:31:38.727Z,100077.86
2018-09-25T07:34:12.752Z,100079.56
2018-09-25T07:36:47.352Z,100077.08
2018-09-25T07:39:21.488Z,100087.21
2018-09-25T07:41:55.557Z,100078.45
2018-09-25T07:44:29.539Z,100081.52
2018-09-25T07:47:03.930Z,100068.09
2018-09-25T07:49:38.001Z,100074.02
2018-09-25T07:52:12.505Z,100076.20
2018-09-25T07:54:46.471Z,100071.82
2018-09-25T07:57:20.691Z,100076.19
2018-09-25T07:59:54.683Z,100081.75
2018-09-25T08:02:28.942Z,100078.91
2018-09-25T08:05:02.901Z,100071.91
2018-09-25T08:07:37.428Z,100068.09
2018-09-25T08:10:11.621Z,100067.92
2018-09-25T08:12:45.781Z,100064.73
2018-09-25T08:15:19.965Z,100071.44
2018-09-25T08:17:54.398Z,100059.56
2018-09-25T08:20:28.490Z,100062.42
2018-09-25T08:23:02.509Z,100055.88
2018-09-25T08:25:36.551Z,100052.30
2018-09-25T08:28:10.762Z,100046.73
2018-09-25T08:30:44.799Z,100047.53
2018-09-25T08:33:18.848Z,100051.10
2018-09-25T08:35:52.873Z,100071.59
2018-09-25T08:38:27.217Z,100062.07
2018-09-25T08:41:01.454Z,100054.74
2018-09-25T08:43:35.653Z,100059.73
2018-09-25T08:46:09.923Z,100051.84
2018-09-25T08:48:44.378Z,100054.91
2018-09-25T08:51:18.378Z,100062.81
2018-09-25T08:53:52.636Z,100054.52
2018-09-25T08:56:26.638Z,100051.73
2018-09-25T08:59:00.936Z,100063.05
2018-09-25T09:01:34.911Z,100058.48
2018-09-25T09:04:08.921Z,100054.52
2018-09-25T09:06:42.985Z,100049.69
2018-09-25T09:09:17.181Z,100047.98
2018-09-25T09:11:51.264Z,100056.63
2018-09-25T09:14:25.636Z,100052.87
2018-09-25T09:16:59.657Z,100049.75
2018-09-25T09:19:33.867Z,100050.16
2018-09-25T09:22:08.012Z,100051.75
2018-09-25T09:24:42.224Z,100062.68
2018-09-25T09:27:16.284Z,100045.98
2018-09-25T09:29:50.613Z,100050.51
2018-09-25T09:32:24.704Z,100045.23
2018-09-25T09:34:59.245Z,100042.29
2018-09-25T09:37:33.378Z,100037.03
2018-09-25T09:40:07.525Z,100042.43
2018-09-25T09:42:41.518Z,100046.31
2018-09-25T09:45:15.662Z,100050.06
2018-09-25T09:47:49.805Z,100043.70
2018-09-25T09:50:23.962Z,100039.27
2018-09-25T09:52:58.060Z,100045.20
2018-09-25T09:55:32.570Z,100036.55
2018-09-25T09:58:06.536Z,100035.31
2018-09-25T10:00:40.802Z,100034.70
2018-09-25T10:03:14.805Z,100037.27
2018-09-25T10:05:49.220Z,100046.63
2018-09-25T10:08:23.171Z,100037.41
2018-09-25T10:10:57.559Z,100040.91
2018-09-25T10:13:31.509Z,100037.16
2018-09-25T10:16:05.546Z,100041.83
2018-09-25T10:18:39.724Z,100034.65
2018-09-25T10:21:13.927Z,100037.84
2018-09-25T10:23:48.027Z,100035.72
2018-09-25T10:26:22.350Z,100033.19
2018-09-25T10:28:56.533Z,100040.99
2018-09-25T10:31:30.679Z,100039.19
2018-09-25T10:34:04.712Z,100035.05
2018-09-25T10:36:39.105Z,100038.62
2018-09-25T10:39:14.413Z,100046.52
2018-09-25T10:41:48.819Z,100053.22
2018-09-25T10:44:23.069Z,100059.17
2018-09-25T10:46:57.133Z,100051.56
2018-09-25T10:49:31.085Z,100041.24
2018-09-25T10:52:05.239Z,100057.56
2018-09-25T10:54:39.411Z,100042.14
2018-09-25T10:57:13.870Z,100032.06
2018-09-25T10:59:48.286Z,100030.30
2018-09-25T11:02:22.518Z,100038.34
2018-09-25T11:04:56.721Z,100019.66
2018-09-25T11:07:31.005Z,100021.86
2018-09-25T11:10:05.290Z,100021.11
2018-09-25T11:12:39.703Z,100019.98
2018-09-25T11:15:13.849Z,100020.91
2018-09-25T11:17:47.973Z,100013.16
2018-09-25T11:20:21.984Z,100011.08
2018-09-25T11:22:56.409Z,100009.64
2018-09-25T11:25:30.568Z,100008.38
2018-09-25T11:28:04.547Z,100003.85
2018-09-25T11:30:38.869Z,100003.52
2018-09-25T11:33:12.977Z,100005.65
2018-09-25T11:35:47.143Z,99997.31
2018-09-25T11:38:21.814Z,99993.59
2018-09-25T11:40:56.097Z,99986.55
2018-09-25T11:43:30.651Z,99985.47
2018-09-25T11:46:04.689Z,99996.41
2018-09-25T11:48:38.909Z,99990.84
2018-09-25T11:51:13.170Z,99984.72
2018-09-25T11:53:47.644Z,99992.01
2018-09-25T11:56:21.703Z,99989.09
2018-09-25T11:58:55.685Z,99992.42
2018-09-25T12:01:29.794Z,99995.05
2018-09-25T12:04:04.145Z,99980.02
2018-09-25T12:06:38.072Z,99978.42
2018-09-25T12:09:14.554Z,99971.01
2018-09-25T12:11:49.251Z,99971.33
2018-09-25T12:14:23.789Z,99972.81
2018-09-25T12:16:57.902Z,99976.16
2018-09-25T12:19:32.929Z,99974.06
2018-09-25T12:22:06.936Z,99967.19
2018-09-25T12:24:41.132Z,99956.66
2018-09-25T12:27:15.411Z,99962.19
2018-09-25T12:29:50.044Z,99961.20
2018-09-25T12:32:24.168Z,99961.69
2018-09-25T12:34:58.646Z,99958.48
2018-09-25T12:37:32.853Z,99955.22
2018-09-25T12:40:07.010Z,99952.70
2018-09-25T12:42:41.468Z,99949.30
2018-09-25T12:45:15.957Z,99960.86
2018-09-25T12:47:49.920Z,99954.31
2018-09-25T12:50:24.194Z,99964.66
2018-09-25T12:52:58.157Z,99969.14
2018-09-25T12:55:32.619Z,99970.13
2018-09-25T12:58:07.790Z,99958.02
2018-09-25T13:00:42.032Z,99955.32
2018-09-25T13:03:16.008Z,99966.40
2018-09-25T13:05:50.573Z,99954.41
2018-09-25T13:08:24.557Z,99964.09
2018-09-25T13:10:58.812Z,99953.14
2018-09-25T13:13:32.857Z,99969.80
2018-09-25T13:16:07.066Z,99963.75
2018-09-25T13:18:41.181Z,99952.76
2018-09-25T13:21:15.579Z,99946.89
2018-09-25T13:23:49.756Z,99948.92
2018-09-25T13:26:23.978Z,99946.98
2018-09-25T13:28:57.894Z,99947.84
2018-09-25T13:31:32.354Z,99947.83
2018-09-25T13:34:06.440Z,99949.19
2018-09-25T13:36:40.563Z,99944.74
2018-09-25T13:39:14.917Z,99950.05
2018-09-25T13:41:49.302Z,99958.20
2018-09-25T13:44:23.408Z,99960.95
2018-09-25T13:46:57.709Z,99964.09
2018-09-25T13:49:31.851Z,99969.36
2018-09-25T13:52:05.892Z,99970.44
2018-09-25T13:54:40.083Z,99967.09
2018-09-25T13:57:14.418Z,99970.03
2018-09-25T13:59:48.531Z,99977.05
2018-09-25T14:02:22.630Z,99972.18
2018-09-25T14:04:56.945Z,99981.62
2018-09-25T14:07:31.287Z,99977.40
2018-09-25T14:10:05.963Z,99978.18
2018-09-25T14:12:40.157Z,99980.45
2018-09-25T14:15:14.200Z,99968.55
2018-09-25T14:17:48.663Z,99984.78
2018-09-25T14:20:22.844Z,99976.13
2018-09-25T14:22:57.073Z,99979.46
2018-09-25T14:25:31.114Z,99983.83
2018-09-25T14:28:05.730Z,99982.28
2018-09-25T14:30:39.897Z,99985.66
2018-09-25T14:33:14.243Z,99985.53
2018-09-25T14:35:48.793Z,99991.60
2018-09-25T14:38:23.203Z,99995.23
2018-09-25T14:40:57.328Z,99994.66
2018-09-25T14:43:31.512Z,99992.09
2018-09-25T14:46:05.776Z,100000.48
2018-09-25T14:48:41.780Z,100008.56
2018-09-25T14:51:15.882Z,100003.84
2018-09-25T14:56:23.247Z,100016.19
2018-09-25T14:58:58.503Z,100017.95
2018-09-25T15:01:32.511Z,100024.72
2018-09-25T15:04:06.753Z,100028.03
2018-09-25T15:06:40.808Z,100022.84
2018-09-25T15:09:15.317Z,100028.15
2018-09-25T15:11:49.452Z,100026.69
2018-09-25T15:14:23.510Z,100026.17
2018-09-25T15:16:57.679Z,100030.67
2018-09-25T15:19:32.703Z,100034.64
2018-09-25T15:22:07.096Z,100041.23
2018-09-25T15:24:40.964Z,100047.09
2018-09-25T15:27:15.112Z,100051.63
2018-09-25T15:29:49.355Z,100046.63
2018-09-25T15:32:23.461Z,100055.45
2018-09-25T15:34:57.656Z,100062.28
2018-09-25T15:37:31.825Z,100066.17
2018-09-25T15:40:06.139Z,100070.09
2018-09-25T15:42:40.155Z,100081.20
2018-09-25T15:45:14.561Z,100078.86
2018-09-25T15:47:48.743Z,100088.85
2018-09-25T15:50:22.872Z,100100.86
2018-09-25T15:52:56.999Z,100102.95
2018-09-25T15:55:31.254Z,100108.45
2018-09-25T15:58:05.418Z,100114.05
2018-09-25T16:00:39.643Z,100119.38
2018-09-25T16:03:13.697Z,100119.19
2018-09-25T16:05:48.291Z,100128.31
2018-09-25T16:08:22.527Z,100131.08
2018-09-25T16:10:57.046Z,100134.34
2018-09-25T16:13:31.237Z,100131.61
2018-09-25T16:16:05.774Z,100141.48
2018-09-25T16:18:39.892Z,100136.48
2018-09-25T16:21:13.961Z,100144.78
2018-09-25T16:23:47.985Z,100140.09
2018-09-25T16:26:23.148Z,100149.95
2018-09-25T16:28:57.666Z,100156.09
2018-09-25T16:31:32.759Z,100165.02
2018-09-25T16:34:06.976Z,100163.91
2018-09-25T16:36:41.549Z,100169.80
2018-09-25T16:39:16.927Z,100181.09
2018-09-25T16:41:51.156Z,100193.89
2018-09-25T16:44:25.290Z,100201.10
2018-09-25T16:46:59.411Z,100193.61
2018-09-25T16:49:33.446Z,100194.67
2018-09-25T16:52:07.935Z,100202.30
2018-09-25T16:54:42.139Z,100199.33
2018-09-25T16:57:16.706Z,100199.83
2018-09-25T16:59:50.842Z,100210.43
2018-09-25T17:02:24.929Z,100214.11
2018-09-25T17:04:58.950Z,100208.33
2018-09-25T17:07:33.219Z,100220.63
2018-09-25T17:10:07.784Z,100228.28
2018-09-25T17:12:42.276Z,100243.02
2018-09-25T17:15:16.448Z,100242.08
2018-09-25T17:17:50.906Z,100252.33
2018-09-25T17:20:25.065Z,100245.69
2018-09-25T17:22:59.568Z,100260.31
2018-09-25T17:25:33.735Z,100264.22
2018-09-25T17:28:08.137Z,100270.69
2018-09-25T17:30:42.954Z,100278.88
2018-09-25T17:33:18.099Z,100284.80
2018-09-25T17:35:52.282Z,100283.73
2018-09-25T17:38:26.638Z,100289.42
2018-09-25T17:41:01.714Z,100290.09
2018-09-25T17:43:36.886Z,100288.38
2018-09-25T17:46:11.919Z,100291.02
2018-09-25T17:48:46.417Z,100299.09
2018-09-25T17:51:22.228Z,100292.84
2018-09-25T17:53:56.509Z,100295.98
2018-09-25T17:56:30.563Z,100300.80
2018-09-25T17:59:04.832Z,100302.34
2018-09-25T18:01:38.967Z,100310.84
2018-09-25T18:04:13.139Z,100307.97
2018-09-25T18:06:47.231Z,100311.75
2018-09-25T18:09:21.748Z,100312.61
2018-09-25T18:11:56.400Z,100326.65
2018-09-25T18:14:30.829Z,100325.66
2018-09-25T18:17:04.957Z,100331.38
2018-09-25T18:19:40.158Z,100338.33
2018-09-25T18:22:14.154Z,100341.59
2018-09-25T18:24:48.110Z,100353.37
2018-09-25T18:27:22.168Z,100353.36
2018-09-25T18:29:56.652Z,100358.77
2018-09-25T18:32:31.077Z,100361.00
2018-09-25T18:35:05.531Z,100361.00
2018-09-25T18:37:39.569Z,100358.49
2018-09-25T18:40:14.139Z,100359.28
2018-09-25T18:42:48.153Z,100358.94
2018-09-25T18:45:22.662Z,100367.20
2018-09-25T18:47:56.676Z,100371.09
2018-09-25T18:50:31.392Z,100378.86
2018-09-25T18:53:05.728Z,100374.01
2018-09-25T18:55:39.824Z,100361.71
2018-09-25T18:58:13.855Z,100371.37
2018-09-25T19:00:48.421Z,100376.25
2018-09-25T19:03:22.550Z,100372.88
2018-09-25T19:05:56.847Z,100367.33
2018-09-25T19:08:31.014Z,100378.64
2018-09-25T19:11:05.497Z,100382.36
2018-09-25T19:13:39.918Z,100379.14
2018-09-25T19:16:14.570Z,100383.00
2018-09-25T19:18:49.607Z,100389.28
2018-09-25T19:21:23.891Z,100388.91
2018-09-25T19:23:58.161Z,100389.27
2018-09-25T19:26:32.531Z,100394.33
2018-09-25T19:29:06.892Z,100396.81
2018-09-25T19:31:41.494Z,100399.71
2018-09-25T19:34:15.569Z,100403.08
2018-09-25T19:36:49.992Z,100401.06
2018-09-25T19:39:24.055Z,100396.66
2018-09-25T19:41:58.315Z,100404.26
2018-09-25T19:44:32.288Z,100412.17
2018-09-25T19:47:06.247Z,100411.67
2018-09-25T19:49:40.453Z,100400.03
2018-09-25T19:52:14.896Z,100406.77
2018-09-25T19:54:48.973Z,100415.91
2018-09-25T19:57:23.402Z,100419.44
2018-09-25T19:59:57.514Z,100421.29
2018-09-25T20:02:31.560Z,100409.46
2018-09-25T20:05:05.695Z,100426.34
2018-09-25T20:07:39.676Z,100422.62
2018-09-25T20:10:13.795Z,100421.45
2018-09-25T20:12:47.907Z,100432.38
2018-09-25T20:15:22.885Z,100428.89
2018-09-25T20:17:57.143Z,100431.23
2018-09-25T20:20:31.058Z,100434.47
2018-09-25T20:23:05.243Z,100438.69
2018-09-25T20:25:39.282Z,100431.39
2018-09-25T20:28:13.512Z,100435.81
2018-09-25T20:30:47.436Z,100433.61
2018-09-25T20:33:21.924Z,100435.28
2018-09-25T20:35:55.918Z,100439.48
2018-09-25T20:38:30.341Z,100442.50
2018-09-25T20:41:04.507Z,100444.17
2018-09-25T20:43:38.486Z,100449.14
2018-09-25T20:46:12.745Z,100452.02
2018-09-25T20:48:47.008Z,100450.50
2018-09-25T20:51:21.141Z,100447.95
2018-09-25T20:53:55.182Z,100459.17
2018-09-25T20:56:29.448Z,100455.88
2018-09-25T20:59:03.831Z,100457.20
2018-09-25T21:01:37.821Z,100455.87
2018-09-25T21:04:12.039Z,100461.88
2018-09-25T21:06:46.017Z,100460.07
2018-09-25T21:09:20.451Z,100456.51
2018-09-25T21:11:54.481Z,100462.74
2018-09-25T21:14:28.961Z,100459.84
2018-09-25T21:17:02.919Z,100462.23
2018-09-25T21:19:37.493Z,100468.02
2018-09-25T21:22:11.791Z,100467.90
2018-09-25T21:24:46.345Z,100470.15
2018-09-25T21:27:20.943Z,100470.86
2018-09-25T21:29:55.141Z,100465.14
2018-09-25T21:32:29.324Z,100461.94
2018-09-25T21:35:03.726Z,100458.00
2018-09-25T21:37:37.904Z,100459.64
2018-09-25T21:40:12.265Z,100473.02
2018-09-25T21:42:46.313Z,100467.66
2018-09-25T21:45:20.336Z,100476.27
2018-09-25T21:47:54.513Z,100468.60
2018-09-25T21:50:29.014Z,100463.72
2018-09-25T21:53:02.933Z,100466.62
2018-09-25T21:55:37.405Z,100469.09
2018-09-25T21:58:11.552Z,100465.97
2018-09-25T22:00:45.654Z,100469.88
2018-09-25T22:03:19.639Z,100471.17
2018-09-25T22:05:54.091Z,100470.66
2018-09-25T22:08:28.167Z,100473.21
2018-09-25T22:11:02.330Z,100468.29
2018-09-25T22:13:36.369Z,100477.03
2018-09-25T22:16:10.959Z,100470.44
2018-09-25T22:18:45.138Z,100473.97
2018-09-25T22:21:19.513Z,100478.66
2018-09-25T22:23:53.507Z,100478.24
2018-09-25T22:26:27.861Z,100478.43
2018-09-25T22:29:01.985Z,100483.02
2018-09-25T22:31:36.117Z,100477.36
2018-09-25T22:34:10.357Z,100480.29
2018-09-25T22:36:44.871Z,100471.03
2018-09-25T22:39:18.981Z,100479.78
2018-09-25T22:41:53.088Z,100484.23
2018-09-25T22:44:27.352Z,100478.98
2018-09-25T22:47:01.703Z,100486.33
2018-09-25T22:49:35.725Z,100489.48
2018-09-25T22:52:09.892Z,100494.20
2018-09-25T22:54:44.036Z,100495.70
2018-09-25T22:57:18.490Z,100505.59
2018-09-25T22:59:52.510Z,100495.30
2018-09-25T23:02:26.686Z,100501.13
2018-09-25T23:05:00.727Z,100505.91
2018-09-25T23:07:35.131Z,100505.00
2018-09-25T23:10:09.268Z,100514.19
2018-09-25T23:12:43.420Z,100513.55
2018-09-25T23:15:17.500Z,100515.71
2018-09-25T23:17:51.920Z,100510.97
2018-09-25T23:20:26.192Z,100514.43
2018-09-25T23:23:00.450Z,100516.62
2018-09-25T23:25:34.628Z,100517.61
2018-09-25T23:28:09.088Z,100515.47
2018-09-25T23:30:43.254Z,100518.95
2018-09-25T23:33:17.466Z,100511.89
2018-09-25T23:35:51.433Z,100511.94
2018-09-25T23:38:25.950Z,100512.70
2018-09-25T23:40:59.919Z,100525.30
2018-09-25T23:43:45.908Z,100511.40
2018-09-25T23:46:34.101Z,100516.38
2018-09-25T23:49:08.085Z,100519.22
2018-09-25T23:51:42.159Z,100530.90
2018-09-25T23:54:20.356Z,100522.56
2018-09-25T23:56:59.563Z,100526.86
2018-09-25T23:59:34.017Z,100531.20
